createdAt,value
2022-11-29T00:01:19.197Z,4.30
2022-11-29T00:03:44.277Z,4.30
2022-11-29T00:06:10.679Z,4.20
2022-11-29T00:08:34.270Z,4.20
2022-11-29T00:10:57.862Z,4.20
2022-11-29T00:13:20.373Z,4.20
2022-11-29T00:15:44.020Z,4.20
2022-11-29T00:18:09.250Z,4.30
2022-11-29T00:20:35.906Z,4.20
2022-11-29T00:22:59.463Z,4.20
2022-11-29T00:25:23.041Z,4.20
2022-11-29T00:27:46.568Z,4.20
2022-11-29T00:30:11.449Z,4.20
2022-11-29T00:32:34.936Z,4.20
2022-11-29T00:34:59.725Z,4.20
2022-11-29T00:37:25.123Z,4.20
2022-11-29T00:39:48.684Z,4.20
2022-11-29T00:42:12.219Z,4.20
2022-11-29T00:44:35.817Z,4.20
2022-11-29T00:46:59.328Z,4.10
2022-11-29T00:49:22.933Z,4.20
2022-11-29T00:51:46.565Z,4.20
2022-11-29T00:54:11.504Z,4.20
2022-11-29T00:56:35.072Z,4.20
2022-11-29T00:58:58.973Z,4.30
2022-11-29T01:01:22.663Z,4.20
2022-11-29T01:03:46.329Z,4.20
2022-11-29T01:06:13.325Z,4.20
2022-11-29T01:08:37.127Z,4.30
2022-11-29T01:11:09.377Z,4.20
2022-11-29T01:13:33.081Z,4.20
2022-11-29T01:15:57.705Z,4.30
2022-11-29T01:18:21.488Z,4.30
2022-11-29T01:20:45.087Z,4.30
2022-11-29T01:23:08.650Z,4.30
2022-11-29T01:25:32.802Z,4.30
2022-11-29T01:27:57.755Z,4.30
2022-11-29T01:30:21.460Z,4.30
2022-11-29T01:32:45.046Z,4.30
2022-11-29T01:35:09.753Z,4.30
2022-11-29T01:37:33.654Z,4.30
2022-11-29T01:39:57.332Z,4.30
2022-11-29T01:42:21.513Z,4.30
2022-11-29T01:45:16.955Z,4.30
2022-11-29T01:47:44.803Z,4.30
2022-11-29T01:50:10.833Z,4.30
2022-11-29T01:52:34.760Z,4.30
2022-11-29T01:55:03.242Z,4.30
2022-11-29T01:57:27.958Z,4.30
2022-11-29T01:59:56.440Z,4.30
2022-11-29T02:02:31.472Z,4.30
2022-11-29T02:04:55.681Z,4.40
2022-11-29T02:07:19.354Z,4.40
2022-11-29T02:09:42.953Z,4.40
2022-11-29T02:12:23.075Z,4.30
2022-11-29T02:15:09.855Z,4.40
2022-11-29T02:17:50.906Z,4.30
2022-11-29T02:20:53.188Z,4.40
2022-11-29T02:23:58.781Z,4.40
2022-11-29T02:26:43.736Z,4.40
2022-11-29T02:29:51.878Z,4.40
2022-11-29T02:33:13.868Z,4.40
2022-11-29T02:36:17.624Z,4.30
2022-11-29T02:39:08.875Z,4.40
2022-11-29T02:41:51.810Z,4.30
2022-11-29T02:44:50.170Z,4.30
2022-11-29T02:47:28.693Z,4.30
2022-11-29T02:50:19.683Z,4.30
2022-11-29T02:52:54.388Z,4.30
2022-11-29T02:55:34.527Z,4.30
2022-11-29T02:58:05.478Z,4.30
2022-11-29T03:00:29.707Z,4.30
2022-11-29T03:03:05.384Z,4.30
2022-11-29T03:05:42.386Z,4.30
2022-11-29T03:08:18.356Z,4.30
2022-11-29T03:10:56.967Z,4.30
2022-11-29T03:13:35.690Z,4.30
2022-11-29T03:16:04.616Z,4.30
2022-11-29T03:18:39.690Z,4.30
2022-11-29T03:21:17.429Z,4.30
2022-11-29T03:23:47.304Z,4.30
2022-11-29T03:26:15.664Z,4.30
2022-11-29T03:28:46.174Z,4.40
2022-11-29T03:31:17.713Z,4.40
2022-11-29T03:33:52.831Z,4.40
2022-11-29T03:36:29.134Z,4.40
2022-11-29T03:38:54.153Z,4.40
2022-11-29T03:41:26.056Z,4.40
2022-11-29T03:43:57.104Z,4.30
2022-11-29T03:46:30.860Z,4.40
2022-11-29T03:49:03.149Z,4.40
2022-11-29T03:51:39.074Z,4.40
2022-11-29T03:54:09.716Z,4.40
2022-11-29T03:56:36.329Z,4.40
2022-11-29T03:59:13.423Z,4.40
2022-11-29T04:02:09.918Z,4.30
2022-11-29T04:05:29.525Z,4.40
2022-11-29T04:08:27.167Z,4.40
2022-11-29T04:11:36.633Z,4.40
2022-11-29T04:14:31.824Z,4.40
2022-11-29T04:17:51.899Z,4.40
2022-11-29T04:21:04.771Z,4.40
2022-11-29T04:23:58.817Z,4.40
2022-11-29T04:27:00.249Z,4.40
2022-11-29T04:29:54.742Z,4.30
2022-11-29T04:32:45.300Z,4.40
2022-11-29T04:35:31.635Z,4.30
2022-11-29T04:38:19.285Z,4.30
2022-11-29T04:41:25.106Z,4.30
2022-11-29T04:44:13.447Z,4.30
2022-11-29T04:46:59.152Z,4.30
2022-11-29T04:49:58.401Z,4.30
2022-11-29T04:52:42.725Z,4.30
2022-11-29T04:55:29.266Z,4.30
2022-11-29T04:58:01.599Z,4.30
2022-11-29T05:00:26.449Z,4.30
2022-11-29T05:02:56.930Z,4.30
2022-11-29T05:05:32.553Z,4.30
2022-11-29T05:08:13.373Z,4.30
2022-11-29T05:10:46.287Z,4.30
2022-11-29T05:13:16.726Z,4.30
2022-11-29T05:16:08.671Z,4.30
2022-11-29T05:18:59.068Z,4.30
2022-11-29T05:21:38.045Z,4.30
2022-11-29T05:24:21.173Z,4.30
2022-11-29T05:26:52.829Z,4.40
2022-11-29T05:29:23.112Z,4.30
2022-11-29T05:31:57.834Z,4.30
2022-11-29T05:34:45.608Z,4.30
2022-11-29T05:37:26.687Z,4.40
2022-11-29T05:40:26.698Z,4.40
2022-11-29T05:43:14.439Z,4.40
2022-11-29T05:45:44.484Z,4.30
2022-11-29T05:48:18.747Z,4.30
2022-11-29T05:50:48.683Z,4.30
2022-11-29T05:53:22.732Z,4.30
2022-11-29T05:56:00.578Z,4.30
2022-11-29T05:58:36.541Z,4.30
2022-11-29T06:01:06.689Z,4.30
2022-11-29T06:03:37.815Z,4.30
2022-11-29T06:06:08.437Z,4.30
2022-11-29T06:08:41.116Z,4.40
2022-11-29T06:11:14.748Z,4.30
2022-11-29T06:13:59.295Z,4.30
2022-11-29T06:16:42.748Z,4.30
2022-11-29T06:19:59.551Z,4.30
2022-11-29T06:22:45.127Z,4.30
2022-11-29T06:25:36.145Z,4.30
2022-11-29T06:28:31.018Z,4.30
2022-11-29T06:31:03.535Z,4.30
2022-11-29T06:33:35.247Z,4.30
2022-11-29T06:36:18.082Z,4.30
2022-11-29T06:38:42.317Z,4.30
2022-11-29T06:41:08.015Z,4.30
2022-11-29T06:43:34.281Z,4.30
2022-11-29T06:46:11.518Z,4.30
2022-11-29T06:48:42.607Z,4.30
2022-11-29T06:51:14.010Z,4.30
2022-11-29T06:53:45.045Z,4.30
2022-11-29T06:56:20.871Z,4.30
2022-11-29T06:58:58.523Z,4.30
2022-11-29T07:01:31.345Z,4.20
2022-11-29T07:04:13.167Z,4.20
2022-11-29T07:06:37.764Z,4.30
2022-11-29T07:09:06.893Z,4.30
2022-11-29T07:11:31.463Z,4.30
2022-11-29T07:13:57.277Z,4.30
2022-11-29T07:16:28.188Z,4.30
2022-11-29T07:19:03.678Z,4.30
2022-11-29T07:21:44.306Z,4.40
2022-11-29T07:24:21.601Z,4.30
2022-11-29T07:26:59.308Z,4.30
2022-11-29T07:29:35.803Z,4.30
2022-11-29T07:32:11.337Z,4.30
2022-11-29T07:34:44.401Z,4.30
2022-11-29T07:37:16.831Z,4.30
2022-11-29T07:39:52.209Z,4.30
2022-11-29T07:42:23.807Z,4.30
2022-11-29T07:45:00.741Z,4.30
2022-11-29T07:47:24.397Z,4.40
2022-11-29T07:49:47.999Z,4.40
2022-11-29T07:52:13.809Z,4.40
2022-11-29T07:54:37.379Z,4.40
2022-11-29T07:57:01.147Z,4.40
2022-11-29T07:59:24.779Z,4.40
2022-11-29T08:01:49.915Z,4.40
2022-11-29T08:04:14.009Z,4.50
2022-11-29T08:06:38.051Z,4.60
2022-11-29T08:09:02.134Z,4.60
2022-11-29T08:11:26.125Z,4.70
2022-11-29T08:13:49.638Z,4.70
2022-11-29T08:16:18.686Z,4.70
2022-11-29T08:18:43.648Z,4.70
2022-11-29T08:21:08.460Z,4.70
2022-11-29T08:23:31.997Z,4.70
2022-11-29T08:26:01.081Z,4.80
2022-11-29T08:28:24.649Z,4.80
2022-11-29T08:30:48.197Z,4.70
2022-11-29T08:33:11.829Z,4.80
2022-11-29T08:35:36.941Z,4.80
2022-11-29T08:38:00.502Z,4.80
2022-11-29T08:40:24.995Z,4.80
2022-11-29T08:42:48.537Z,4.90
2022-11-29T08:45:13.214Z,4.90
2022-11-29T08:47:37.166Z,4.90
2022-11-29T08:50:03.303Z,5.00
2022-11-29T08:52:45.685Z,5.00
2022-11-29T08:55:10.336Z,5.00
2022-11-29T08:57:41.367Z,5.10
2022-11-29T09:00:07.653Z,5.10
2022-11-29T09:02:31.236Z,5.10
2022-11-29T09:04:54.853Z,5.10
2022-11-29T09:07:18.417Z,5.20
2022-11-29T09:09:43.406Z,5.20
2022-11-29T09:12:08.758Z,5.30
2022-11-29T09:14:32.325Z,5.30
2022-11-29T09:16:55.859Z,5.40
2022-11-29T09:19:19.663Z,5.50
2022-11-29T09:21:43.209Z,5.50
2022-11-29T09:24:09.274Z,5.50
2022-11-29T09:26:37.897Z,5.50
2022-11-29T09:29:02.887Z,5.50
2022-11-29T09:31:27.603Z,5.50
2022-11-29T09:33:51.250Z,5.60
2022-11-29T09:36:14.983Z,5.60
2022-11-29T09:38:39.317Z,5.60
2022-11-29T09:41:09.875Z,5.60
2022-11-29T09:43:44.617Z,5.60
2022-11-29T09:46:19.053Z,5.60
2022-11-29T09:49:00.538Z,5.80
2022-11-29T09:51:29.657Z,5.80
2022-11-29T09:54:15.968Z,5.90
2022-11-29T09:56:44.032Z,5.90
2022-11-29T09:59:14.684Z,5.90
2022-11-29T10:01:42.562Z,6.00
2022-11-29T10:04:12.207Z,6.00
2022-11-29T10:06:43.256Z,6.00
2022-11-29T10:09:16.592Z,6.00
2022-11-29T10:11:54.457Z,5.90
2022-11-29T10:14:25.683Z,5.90
2022-11-29T10:16:54.385Z,6.00
2022-11-29T10:19:25.464Z,6.00
2022-11-29T10:21:59.153Z,6.00
2022-11-29T10:24:24.998Z,6.00
2022-11-29T10:26:48.635Z,6.00
2022-11-29T10:29:15.858Z,6.00
2022-11-29T10:31:44.163Z,6.10
2022-11-29T10:34:16.054Z,6.20
2022-11-29T10:36:45.525Z,6.10
2022-11-29T10:39:18.349Z,6.10
2022-11-29T10:41:41.959Z,6.20
2022-11-29T10:44:05.676Z,6.10
2022-11-29T10:46:33.577Z,6.10
2022-11-29T10:49:02.129Z,6.20
2022-11-29T10:51:25.944Z,6.20
2022-11-29T10:53:51.079Z,6.10
2022-11-29T10:56:24.174Z,6.10
2022-11-29T10:58:58.530Z,6.00
2022-11-29T11:01:22.480Z,6.00
2022-11-29T11:03:53.616Z,6.00
2022-11-29T11:06:21.342Z,6.00
2022-11-29T11:08:47.623Z,6.10
2022-11-29T11:11:11.899Z,6.10
2022-11-29T11:13:36.783Z,6.10
2022-11-29T11:16:18.155Z,6.00
2022-11-29T11:18:41.841Z,6.10
2022-11-29T11:21:09.529Z,6.00
2022-11-29T11:23:42.335Z,6.00
2022-11-29T11:26:09.751Z,6.00
2022-11-29T11:28:43.181Z,6.10
2022-11-29T11:31:10.265Z,6.10
2022-11-29T11:33:36.046Z,6.10
2022-11-29T11:36:23.975Z,6.10
2022-11-29T11:38:54.724Z,6.10
2022-11-29T11:41:23.873Z,6.10
2022-11-29T11:44:00.313Z,6.10
2022-11-29T11:46:24.133Z,6.00
2022-11-29T11:48:48.227Z,6.00
2022-11-29T11:51:24.116Z,6.00
2022-11-29T11:53:55.775Z,6.00
2022-11-29T11:56:19.930Z,6.00
2022-11-29T11:58:51.937Z,6.00
2022-11-29T12:01:24.725Z,6.00
2022-11-29T12:03:58.082Z,6.00
2022-11-29T12:06:31.197Z,6.00
2022-11-29T12:09:04.037Z,6.00
2022-11-29T12:11:28.554Z,5.90
2022-11-29T12:13:57.688Z,5.90
2022-11-29T12:16:28.670Z,6.00
2022-11-29T12:18:55.716Z,6.00
2022-11-29T12:21:24.791Z,6.10
2022-11-29T12:23:54.521Z,5.90
2022-11-29T12:26:55.452Z,6.00
2022-11-29T12:29:15.298Z,6.00
2022-11-29T12:31:57.735Z,6.10
2022-11-29T12:34:41.280Z,6.10
2022-11-29T12:37:16.684Z,6.00
2022-11-29T12:39:59.116Z,5.90
2022-11-29T12:42:39.536Z,5.90
2022-11-29T12:45:19.700Z,5.90
2022-11-29T12:47:56.584Z,6.00
2022-11-29T12:50:34.717Z,5.90
2022-11-29T12:53:15.789Z,5.90
2022-11-29T12:55:50.892Z,5.90
2022-11-29T12:58:24.460Z,5.90
2022-11-29T13:00:56.779Z,5.90
2022-11-29T13:03:29.601Z,6.00
2022-11-29T13:06:07.649Z,5.90
2022-11-29T13:08:58.666Z,5.90
2022-11-29T13:11:26.617Z,6.00
2022-11-29T13:14:08.253Z,6.00
2022-11-29T13:16:53.283Z,6.10
2022-11-29T13:19:24.588Z,6.00
2022-11-29T13:22:00.779Z,6.00
2022-11-29T13:24:30.399Z,5.90
2022-11-29T13:26:55.455Z,5.90
2022-11-29T13:29:20.531Z,6.00
2022-11-29T13:31:45.452Z,5.90
2022-11-29T13:34:14.362Z,5.90
2022-11-29T13:36:52.991Z,5.90
2022-11-29T13:39:33.251Z,5.90
2022-11-29T13:42:06.660Z,5.90
2022-11-29T13:44:39.190Z,5.90
2022-11-29T13:47:07.877Z,5.90
2022-11-29T13:49:58.112Z,5.90
2022-11-29T13:52:40.966Z,5.80
2022-11-29T13:55:29.172Z,5.80
2022-11-29T14:00:51.621Z,5.80
2022-11-29T14:03:40.147Z,5.80
2022-11-29T14:06:22.313Z,5.80
2022-11-29T14:09:31.996Z,5.80
2022-11-29T14:12:07.033Z,5.80
2022-11-29T14:14:38.513Z,5.80
2022-11-29T14:17:05.384Z,5.80
2022-11-29T14:19:33.806Z,5.80
2022-11-29T14:22:33.357Z,5.80
2022-11-29T14:25:01.401Z,5.80
2022-11-29T14:27:52.110Z,5.80
2022-11-29T14:30:48.871Z,5.80
2022-11-29T14:33:42.559Z,5.80
2022-11-29T14:36:26.798Z,5.80
2022-11-29T14:39:04.076Z,5.80
2022-11-29T14:41:44.279Z,5.80
2022-11-29T14:44:18.603Z,5.80
2022-11-29T14:46:42.343Z,5.80
2022-11-29T14:49:07.395Z,5.80
2022-11-29T14:51:33.516Z,5.80
2022-11-29T14:54:09.272Z,5.80
2022-11-29T14:56:42.620Z,5.70
2022-11-29T14:59:44.789Z,5.80
2022-11-29T15:02:26.174Z,5.70
2022-11-29T15:04:53.752Z,5.70
2022-11-29T15:07:21.237Z,5.80
2022-11-29T15:09:45.471Z,5.80
2022-11-29T15:12:14.058Z,5.80
2022-11-29T15:14:49.696Z,5.80
2022-11-29T15:17:25.960Z,5.80
2022-11-29T15:20:37.516Z,5.80
2022-11-29T15:23:07.335Z,5.70
2022-11-29T15:25:33.166Z,5.70
2022-11-29T15:27:58.477Z,5.70
2022-11-29T15:30:39.068Z,5.70
2022-11-29T15:33:05.908Z,5.70
2022-11-29T15:35:30.204Z,5.70
2022-11-29T15:37:54.902Z,5.70
2022-11-29T15:40:22.810Z,5.70
2022-11-29T15:42:50.878Z,5.60
2022-11-29T15:45:33.534Z,5.60
2022-11-29T15:48:12.627Z,5.60
2022-11-29T15:50:36.549Z,5.60
2022-11-29T15:53:06.920Z,5.60
2022-11-29T15:55:32.599Z,5.60
2022-11-29T15:58:02.634Z,5.60
2022-11-29T16:00:31.477Z,5.60
2022-11-29T16:02:59.642Z,5.60
2022-11-29T16:05:27.258Z,5.50
2022-11-29T16:07:54.625Z,5.50
2022-11-29T16:10:22.262Z,5.40
2022-11-29T16:12:57.792Z,5.40
2022-11-29T16:15:31.263Z,5.40
2022-11-29T16:17:54.915Z,5.40
2022-11-29T16:20:26.992Z,5.40
2022-11-29T16:23:05.572Z,5.40
2022-11-29T16:25:33.286Z,5.40
2022-11-29T16:28:01.442Z,5.40
2022-11-29T16:30:27.981Z,5.40
2022-11-29T16:32:56.373Z,5.40
2022-11-29T16:35:24.439Z,5.40
2022-11-29T16:37:48.743Z,5.40
2022-11-29T16:40:24.676Z,5.40
2022-11-29T16:43:19.658Z,5.40
2022-11-29T16:45:44.325Z,5.50
2022-11-29T16:48:31.799Z,5.50
2022-11-29T16:51:20.412Z,5.40
2022-11-29T16:53:47.759Z,5.40
2022-11-29T16:56:13.972Z,5.50
2022-11-29T16:59:16.653Z,5.50
2022-11-29T17:01:27.305Z,5.50
2022-11-29T17:03:51.737Z,5.40
2022-11-29T17:06:16.751Z,5.50
2022-11-29T17:08:40.277Z,5.40
2022-11-29T17:11:03.826Z,5.40
2022-11-29T17:13:27.370Z,5.40
2022-11-29T17:15:52.361Z,5.40
2022-11-29T17:18:15.854Z,5.50
2022-11-29T17:20:39.526Z,5.50
2022-11-29T17:23:03.019Z,5.50
2022-11-29T17:25:26.623Z,5.50
2022-11-29T17:27:50.289Z,5.40
2022-11-29T17:30:15.237Z,5.40
2022-11-29T17:32:40.129Z,5.40
2022-11-29T17:35:03.920Z,5.40
2022-11-29T17:37:27.487Z,5.40
2022-11-29T17:39:51.078Z,5.40
2022-11-29T17:42:14.699Z,5.40
2022-11-29T17:44:38.432Z,5.40
2022-11-29T17:47:01.956Z,5.40
2022-11-29T17:49:27.296Z,5.30
2022-11-29T17:51:52.670Z,5.40
2022-11-29T17:54:16.497Z,5.40
2022-11-29T17:56:40.170Z,5.40
2022-11-29T17:59:05.253Z,5.40
2022-11-29T18:01:31.287Z,5.40
2022-11-29T18:03:57.130Z,5.40
2022-11-29T18:06:24.048Z,5.50
2022-11-29T18:08:50.011Z,5.40
2022-11-29T18:11:15.750Z,5.50
2022-11-29T18:13:39.920Z,5.50
2022-11-29T18:16:06.805Z,5.50
2022-11-29T18:18:30.355Z,5.40
2022-11-29T18:20:58.629Z,5.40
2022-11-29T18:23:23.620Z,5.40
2022-11-29T18:25:58.330Z,5.40
2022-11-29T18:28:21.873Z,5.40
2022-11-29T18:30:45.385Z,5.50
2022-11-29T18:33:09.110Z,5.50
2022-11-29T18:35:32.592Z,5.40
2022-11-29T18:38:14.742Z,5.40
2022-11-29T18:40:42.092Z,5.40
2022-11-29T18:43:05.609Z,5.40
2022-11-29T18:45:29.158Z,5.40
2022-11-29T18:47:52.677Z,5.40
2022-11-29T18:50:16.461Z,5.40
2022-11-29T18:52:40.899Z,5.50
2022-11-29T18:55:04.808Z,5.40
2022-11-29T18:57:29.677Z,5.40
2022-11-29T18:59:53.277Z,5.40
2022-11-29T19:02:20.000Z,5.40
2022-11-29T19:04:43.970Z,5.40
2022-11-29T19:07:07.698Z,5.40
2022-11-29T19:09:31.316Z,5.40
2022-11-29T19:11:54.829Z,5.40
2022-11-29T19:14:20.408Z,5.40
2022-11-29T19:16:46.430Z,5.40
2022-11-29T19:19:10.171Z,5.50
2022-11-29T19:21:35.373Z,5.50
2022-11-29T19:24:01.446Z,5.50
2022-11-29T19:26:28.665Z,5.50
2022-11-29T19:28:52.433Z,5.50
2022-11-29T19:31:20.066Z,5.50
2022-11-29T19:33:45.338Z,5.50
2022-11-29T19:36:12.195Z,5.50
2022-11-29T19:38:37.412Z,5.50
2022-11-29T19:41:01.370Z,5.50
2022-11-29T19:43:24.993Z,5.40
2022-11-29T19:45:48.613Z,5.40
2022-11-29T19:48:13.611Z,5.50
2022-11-29T19:50:37.189Z,5.50
2022-11-29T19:53:00.736Z,5.50
2022-11-29T19:55:24.276Z,5.50
2022-11-29T19:57:47.913Z,5.50
2022-11-29T20:00:13.516Z,5.50
2022-11-29T20:02:37.805Z,5.50
2022-11-29T20:05:02.719Z,5.50
2022-11-29T20:07:26.349Z,5.50
2022-11-29T20:09:49.963Z,5.50
2022-11-29T20:12:13.545Z,5.50
2022-11-29T20:14:37.094Z,5.50
2022-11-29T20:17:00.659Z,5.60
2022-11-29T20:19:24.214Z,5.60
2022-11-29T20:21:50.260Z,5.60
2022-11-29T20:24:15.270Z,5.50
2022-11-29T20:26:41.509Z,5.60
2022-11-29T20:29:05.861Z,5.60
2022-11-29T20:31:30.569Z,5.60
2022-11-29T20:33:57.302Z,5.60
2022-11-29T20:36:38.963Z,5.50
2022-11-29T20:39:16.897Z,5.50
2022-11-29T20:41:49.748Z,5.50
2022-11-29T20:44:21.771Z,5.50
2022-11-29T20:46:45.808Z,5.50
2022-11-29T20:49:10.539Z,5.50
2022-11-29T20:51:42.331Z,5.50
2022-11-29T20:54:07.385Z,5.40
2022-11-29T20:56:30.953Z,5.50
2022-11-29T20:58:54.571Z,5.40
2022-11-29T21:01:18.132Z,5.40
2022-11-29T21:03:41.783Z,5.40
2022-11-29T21:06:07.346Z,5.40
2022-11-29T21:08:32.872Z,5.40
2022-11-29T21:11:04.233Z,5.30
2022-11-29T21:13:28.450Z,5.30
2022-11-29T21:15:52.737Z,5.30
2022-11-29T21:18:24.002Z,5.30
2022-11-29T21:20:54.845Z,5.30
2022-11-29T21:23:29.872Z,5.30
2022-11-29T21:26:03.612Z,5.30
2022-11-29T21:28:35.771Z,5.30
2022-11-29T21:31:00.176Z,5.30
2022-11-29T21:33:24.376Z,5.30
2022-11-29T21:35:48.858Z,5.30
2022-11-29T21:38:24.592Z,5.30
2022-11-29T21:40:48.166Z,5.30
2022-11-29T21:43:13.062Z,5.30
2022-11-29T21:45:36.635Z,5.30
2022-11-29T21:48:01.693Z,5.30
2022-11-29T21:50:25.300Z,5.20
2022-11-29T21:52:52.432Z,5.20
2022-11-29T21:55:16.150Z,5.20
2022-11-29T21:57:39.885Z,5.20
2022-11-29T22:00:05.794Z,5.20
2022-11-29T22:02:29.420Z,5.20
2022-11-29T22:04:53.049Z,5.10
2022-11-29T22:07:16.598Z,5.20
2022-11-29T22:09:40.257Z,5.10
2022-11-29T22:12:19.528Z,5.20
2022-11-29T22:14:47.577Z,5.20
2022-11-29T22:17:12.639Z,5.20
2022-11-29T22:19:37.366Z,5.20
2022-11-29T22:22:02.865Z,5.20
2022-11-29T22:24:29.327Z,5.20
2022-11-29T22:26:53.953Z,5.20
2022-11-29T22:29:18.177Z,5.20
2022-11-29T22:31:42.552Z,5.20
2022-11-29T22:34:07.671Z,5.20
2022-11-29T22:36:31.242Z,5.20
2022-11-29T22:38:56.846Z,5.20
2022-11-29T22:41:20.497Z,5.20
2022-11-29T22:43:44.531Z,5.20
2022-11-29T22:46:12.391Z,5.20
2022-11-29T22:48:38.908Z,5.20
2022-11-29T22:51:09.739Z,5.20
2022-11-29T22:53:33.447Z,5.20
2022-11-29T22:56:00.067Z,5.30
2022-11-29T22:58:23.622Z,5.20
2022-11-29T23:00:47.251Z,5.20
2022-11-29T23:03:10.856Z,5.20
2022-11-29T23:05:34.862Z,5.20
2022-11-29T23:07:59.866Z,5.20
2022-11-29T23:10:23.410Z,5.10
2022-11-29T23:12:47.498Z,5.20
2022-11-29T23:15:11.823Z,5.20
2022-11-29T23:17:35.418Z,5.10
2022-11-29T23:19:58.896Z,5.20
2022-11-29T23:22:22.439Z,5.20
2022-11-29T23:24:47.418Z,5.20
2022-11-29T23:27:11.711Z,5.20
2022-11-29T23:29:35.193Z,5.20
2022-11-29T23:31:58.893Z,5.20
2022-11-29T23:34:22.444Z,5.20
2022-11-29T23:36:52.370Z,5.30
2022-11-29T23:39:16.682Z,5.30
2022-11-29T23:41:41.568Z,5.30
2022-11-29T23:44:06.358Z,5.30
2022-11-29T23:46:29.879Z,5.30
2022-11-29T23:48:53.802Z,5.30
2022-11-29T23:51:18.505Z,5.30
2022-11-29T23:53:42.564Z,5.30
2022-11-29T23:56:08.940Z,5.30
2022-11-29T23:58:34.852Z,5.30
